createdAt,value
2018-08-13T00:00:03.867Z,61.18
2018-08-13T00:02:35.634Z,62.05
2018-08-13T00:05:06.873Z,62.82
2018-08-13T00:07:37.705Z,62.15
2018-08-13T00:10:09.438Z,62.65
2018-08-13T00:12:41.584Z,63.43
2018-08-13T00:15:12.807Z,63.39
2018-08-13T00:17:44.737Z,62.29
2018-08-13T00:20:16.849Z,62.17
2018-08-13T00:22:48.961Z,62.33
2018-08-13T00:25:25.520Z,62.68
2018-08-13T00:27:57.267Z,62.02
2018-08-13T00:30:28.466Z,63.54
2018-08-13T00:35:31.899Z,63.14
2018-08-13T00:38:00.928Z,63.91
2018-08-13T00:43:05.084Z,63.18
2018-08-13T00:45:34.337Z,63.10
2018-08-13T00:48:03.574Z,62.99
2018-08-13T00:53:07.425Z,62.94
2018-08-13T00:55:36.775Z,63.96
2018-08-13T00:58:06.167Z,63.28
2018-08-13T01:00:35.197Z,63.06
2018-08-13T01:03:04.606Z,63.41
2018-08-13T01:05:33.678Z,63.54
2018-08-13T01:08:03.349Z,64.02
2018-08-13T01:10:32.644Z,64.12
2018-08-13T01:13:01.627Z,63.74
2018-08-13T01:15:30.660Z,65.04
2018-08-13T01:17:59.803Z,64.14
2018-08-13T01:20:28.772Z,65.52
2018-08-13T01:22:57.780Z,63.48
2018-08-13T01:25:26.929Z,63.73
2018-08-13T01:27:56.120Z,64.24
2018-08-13T01:30:25.263Z,65.18
2018-08-13T01:32:54.367Z,66.25
2018-08-13T01:35:23.275Z,66.54
2018-08-13T01:37:52.271Z,66.15
2018-08-13T01:40:21.529Z,65.42
2018-08-13T01:42:50.583Z,65.30
2018-08-13T01:45:19.700Z,64.15
2018-08-13T01:47:48.736Z,64.05
2018-08-13T01:50:17.975Z,64.52
2018-08-13T01:52:47.135Z,64.38
2018-08-13T01:55:16.262Z,64.35
2018-08-13T01:57:45.262Z,64.69
2018-08-13T02:00:16.486Z,65.17
2018-08-13T02:02:45.483Z,64.95
2018-08-13T02:05:14.518Z,65.02
2018-08-13T02:07:43.881Z,65.62
2018-08-13T02:10:13.891Z,65.14
2018-08-13T02:12:43.746Z,66.34
2018-08-13T02:15:13.970Z,65.08
2018-08-13T02:17:43.821Z,64.27
2018-08-13T02:20:13.895Z,65.53
2018-08-13T02:22:44.011Z,65.45
2018-08-13T02:25:14.467Z,64.62
2018-08-13T02:27:44.318Z,64.75
2018-08-13T02:30:14.901Z,65.07
2018-08-13T02:32:44.344Z,65.26
2018-08-13T02:35:14.415Z,64.48
2018-08-13T02:37:44.474Z,64.32
2018-08-13T02:40:14.511Z,64.28
2018-08-13T02:42:44.573Z,63.99
2018-08-13T02:45:14.615Z,63.76
2018-08-13T02:50:20.039Z,63.56
2018-08-13T02:52:49.261Z,63.42
2018-08-13T02:55:18.308Z,64.64
2018-08-13T02:57:47.241Z,65.09
2018-08-13T03:00:16.184Z,64.87
2018-08-13T03:02:49.024Z,64.42
2018-08-13T03:05:17.931Z,64.67
2018-08-13T03:07:47.551Z,64.21
2018-08-13T03:10:17.224Z,64.43
2018-08-13T03:12:46.251Z,64.81
2018-08-13T03:15:16.058Z,64.92
2018-08-13T03:17:45.474Z,64.95
2018-08-13T03:20:15.430Z,64.93
2018-08-13T03:22:48.599Z,63.97
2018-08-13T03:25:20.468Z,64.41
2018-08-13T03:27:52.116Z,64.47
2018-08-13T03:30:24.364Z,64.02
2018-08-13T03:32:57.873Z,64.56
2018-08-13T03:35:30.061Z,63.93
2018-08-13T03:38:01.650Z,63.04
2018-08-13T03:40:33.254Z,64.06
2018-08-13T03:43:06.073Z,65.69
2018-08-13T03:45:37.090Z,64.68
2018-08-13T03:48:08.511Z,64.56
2018-08-13T03:50:41.660Z,64.70
2018-08-13T03:53:15.685Z,65.93
2018-08-13T03:55:47.784Z,65.25
2018-08-13T03:58:20.020Z,65.91
2018-08-13T04:00:51.965Z,65.89
2018-08-13T04:03:22.803Z,65.58
2018-08-13T04:05:55.044Z,64.68
2018-08-13T04:08:27.400Z,64.32
2018-08-13T04:10:59.273Z,64.61
2018-08-13T04:13:31.152Z,64.15
2018-08-13T04:16:06.628Z,64.17
2018-08-13T04:18:38.390Z,63.42
2018-08-13T04:21:10.224Z,63.46
2018-08-13T04:23:42.571Z,64.18
2018-08-13T04:26:13.264Z,63.58
2018-08-13T04:28:45.086Z,63.42
2018-08-13T04:36:28.662Z,61.08
2018-08-13T04:38:59.193Z,60.34
2018-08-13T04:41:30.687Z,61.47
2018-08-13T04:44:01.661Z,61.83
2018-08-13T04:46:34.102Z,61.30
2018-08-13T04:49:04.932Z,62.25
2018-08-13T04:51:35.646Z,61.97
2018-08-13T04:54:05.894Z,60.40
2018-08-13T04:56:37.184Z,61.02
2018-08-13T04:59:09.394Z,60.26
2018-08-13T05:01:44.542Z,59.77
2018-08-13T05:04:15.754Z,60.50
2018-08-13T05:06:47.428Z,60.85
2018-08-13T05:09:21.305Z,59.90
2018-08-13T05:11:54.107Z,58.03
2018-08-13T05:14:25.420Z,58.87
2018-08-13T05:16:58.491Z,58.63
2018-08-13T05:19:29.419Z,60.00
2018-08-13T05:22:03.236Z,58.86
2018-08-13T05:24:38.069Z,58.21
2018-08-13T05:27:09.819Z,57.07
2018-08-13T05:29:41.053Z,57.29
2018-08-13T05:32:12.320Z,57.23
2018-08-13T05:34:42.508Z,56.75
2018-08-13T05:37:13.953Z,56.49
2018-08-13T05:39:45.434Z,57.03
2018-08-13T05:42:19.295Z,56.17
2018-08-13T05:44:49.996Z,54.52
2018-08-13T05:47:24.044Z,54.50
2018-08-13T05:49:55.913Z,55.10
2018-08-13T05:52:28.440Z,54.29
2018-08-13T05:55:01.464Z,53.76
2018-08-13T05:57:35.341Z,53.54
2018-08-13T06:00:07.148Z,52.11
2018-08-13T06:02:41.520Z,52.54
2018-08-13T06:05:13.393Z,51.17
2018-08-13T06:07:45.840Z,50.32
2018-08-13T06:10:17.452Z,51.21
2018-08-13T06:12:49.120Z,51.31
2018-08-13T06:15:20.839Z,51.75
2018-08-13T06:17:57.003Z,50.09
2018-08-13T06:20:27.725Z,49.98
2018-08-13T06:23:00.849Z,50.01
2018-08-13T06:25:31.632Z,50.74
2018-08-13T06:28:01.456Z,51.05
2018-08-13T06:30:33.286Z,49.10
2018-08-13T06:33:02.198Z,50.42
2018-08-13T06:35:33.120Z,50.34
2018-08-13T06:38:04.342Z,48.37
2018-08-13T06:40:37.932Z,49.67
2018-08-13T06:43:10.581Z,48.46
2018-08-13T06:45:46.440Z,48.88
2018-08-13T06:48:21.011Z,47.90
2018-08-13T06:50:53.641Z,49.77
2018-08-13T06:53:27.386Z,48.95
2018-08-13T06:56:00.246Z,49.04
2018-08-13T06:58:31.734Z,49.72
2018-08-13T07:01:01.853Z,47.49
2018-08-13T07:03:33.644Z,48.45
2018-08-13T07:08:40.724Z,48.16
2018-08-13T07:11:19.489Z,48.17
2018-08-13T07:13:50.763Z,48.18
2018-08-13T07:16:23.871Z,49.00
2018-08-13T07:18:56.196Z,49.88
2018-08-13T07:21:27.570Z,48.64
2018-08-13T07:23:59.723Z,47.77
2018-08-13T07:26:30.256Z,47.65
2018-08-13T07:29:01.729Z,48.65
2018-08-13T07:31:32.342Z,48.38
2018-08-13T07:34:03.907Z,47.28
2018-08-13T07:36:35.856Z,48.59
2018-08-13T07:39:12.401Z,46.04
2018-08-13T07:41:43.742Z,46.59
2018-08-13T07:44:14.932Z,47.53
2018-08-13T07:46:47.809Z,46.78
2018-08-13T07:49:19.993Z,47.66
2018-08-13T07:51:52.435Z,48.74
2018-08-13T07:54:21.383Z,47.20
2018-08-13T07:56:56.484Z,46.55
2018-08-13T07:59:28.542Z,45.66
2018-08-13T08:01:59.997Z,46.11
2018-08-13T08:04:33.036Z,46.08
2018-08-13T08:07:04.999Z,46.39
2018-08-13T08:09:33.862Z,46.05
2018-08-13T08:12:02.750Z,44.54
2018-08-13T08:14:31.897Z,44.18
2018-08-13T08:17:00.989Z,43.38
2018-08-13T08:19:30.142Z,43.58
2018-08-13T08:21:59.193Z,43.94
2018-08-13T08:24:28.214Z,45.18
2018-08-13T08:26:57.192Z,44.83
2018-08-13T08:29:26.782Z,43.84
2018-08-13T08:31:56.522Z,43.10
2018-08-13T08:34:26.980Z,42.71
2018-08-13T08:36:57.208Z,42.84
2018-08-13T08:39:26.831Z,41.91
2018-08-13T08:44:31.872Z,41.69
2018-08-13T08:47:00.971Z,42.98
2018-08-13T08:49:30.046Z,43.48
2018-08-13T08:51:59.073Z,41.82
2018-08-13T08:54:28.444Z,42.74
2018-08-13T08:56:57.678Z,43.21
2018-08-13T08:59:27.177Z,41.65
2018-08-13T09:01:56.922Z,39.31
2018-08-13T09:04:27.079Z,39.46
2018-08-13T09:06:57.482Z,39.66
2018-08-13T09:09:27.952Z,39.96
2018-08-13T09:11:56.931Z,40.68
2018-08-13T09:14:26.990Z,40.40
2018-08-13T09:16:57.156Z,40.69
2018-08-13T09:19:38.299Z,39.79
2018-08-13T09:22:19.421Z,39.95
2018-08-13T09:24:59.871Z,40.09
2018-08-13T09:27:39.923Z,38.73
2018-08-13T09:30:19.989Z,36.94
2018-08-13T09:33:00.103Z,38.88
2018-08-13T09:35:33.784Z,38.88
2018-08-13T09:38:02.848Z,38.95
2018-08-13T09:40:32.917Z,38.83
2018-08-13T09:43:02.107Z,39.26
2018-08-13T09:45:31.186Z,36.03
2018-08-13T09:48:00.193Z,37.36
2018-08-13T09:50:29.329Z,36.33
2018-08-13T09:52:58.622Z,37.50
2018-08-13T09:55:28.520Z,35.29
2018-08-13T09:57:57.929Z,35.34
2018-08-13T10:00:32.714Z,35.06
2018-08-13T10:03:01.636Z,35.58
2018-08-13T10:05:30.673Z,36.61
2018-08-13T10:07:59.738Z,35.97
2018-08-13T10:13:03.231Z,35.06
2018-08-13T10:15:32.251Z,33.97
2018-08-13T10:18:01.421Z,34.08
2018-08-13T10:20:30.476Z,35.71
2018-08-13T10:22:59.961Z,36.89
2018-08-13T10:25:28.956Z,36.77
2018-08-13T10:27:59.017Z,37.25
2018-08-13T10:30:28.081Z,34.87
2018-08-13T10:32:57.860Z,34.54
2018-08-13T10:35:28.114Z,34.43
2018-08-13T10:37:58.011Z,33.08
2018-08-13T10:40:31.524Z,33.98
2018-08-13T10:43:00.564Z,33.57
2018-08-13T10:45:30.202Z,33.93
2018-08-13T10:47:59.199Z,33.51
2018-08-13T10:50:28.635Z,34.81
2018-08-13T10:53:01.991Z,34.29
2018-08-13T10:55:31.238Z,33.92
2018-08-13T10:58:00.218Z,34.75
2018-08-13T11:03:04.997Z,36.84
2018-08-13T11:05:34.226Z,34.60
2018-08-13T11:08:03.799Z,34.71
2018-08-13T11:10:32.831Z,33.56
2018-08-13T11:13:02.678Z,33.14
2018-08-13T11:15:31.671Z,34.62
2018-08-13T11:18:00.905Z,34.05
2018-08-13T11:20:29.891Z,33.31
2018-08-13T11:22:58.959Z,34.65
2018-08-13T11:25:28.525Z,34.65
2018-08-13T11:27:58.440Z,32.98
2018-08-13T11:30:28.459Z,33.55
2018-08-13T11:32:58.856Z,33.08
2018-08-13T11:35:28.930Z,35.20
2018-08-13T11:37:59.130Z,33.41
2018-08-13T11:43:03.861Z,35.20
2018-08-13T11:45:32.866Z,34.76
2018-08-13T11:48:01.951Z,34.75
2018-08-13T11:50:31.018Z,34.75
2018-08-13T11:53:00.502Z,33.56
2018-08-13T11:55:29.731Z,34.67
2018-08-13T11:57:58.761Z,32.23
2018-08-13T12:00:29.193Z,33.24
2018-08-13T12:05:34.838Z,34.03
2018-08-13T12:08:03.912Z,32.86
2018-08-13T12:10:32.902Z,33.00
2018-08-13T12:13:01.927Z,33.96
2018-08-13T12:15:30.829Z,32.62
2018-08-13T12:18:00.068Z,34.68
2018-08-13T12:20:36.293Z,34.78
2018-08-13T12:23:05.225Z,34.28
2018-08-13T12:25:34.224Z,33.71
2018-08-13T12:28:03.415Z,33.22
2018-08-13T12:30:32.476Z,34.04
2018-08-13T12:33:01.700Z,32.37
2018-08-13T12:38:04.989Z,34.09
2018-08-13T12:40:33.987Z,33.87
2018-08-13T12:43:03.034Z,32.03
2018-08-13T12:45:32.167Z,32.60
2018-08-13T12:48:01.100Z,32.25
2018-08-13T12:50:30.377Z,33.49
2018-08-13T12:52:59.309Z,31.39
2018-08-13T12:55:28.329Z,31.91
2018-08-13T12:57:57.638Z,31.54
2018-08-13T13:05:35.181Z,31.81
2018-08-13T13:08:03.956Z,30.64
2018-08-13T13:10:33.296Z,32.70
2018-08-13T13:13:02.881Z,31.77
2018-08-13T13:15:31.980Z,32.25
2018-08-13T13:18:01.019Z,32.66
2018-08-13T13:20:30.234Z,34.38
2018-08-13T13:23:00.411Z,32.48
2018-08-13T13:25:29.483Z,31.83
2018-08-13T13:27:58.481Z,32.99
2018-08-13T13:30:27.453Z,33.02
2018-08-13T13:32:56.785Z,30.50
2018-08-13T13:35:25.789Z,31.96
2018-08-13T13:37:54.890Z,34.33
2018-08-13T13:40:23.998Z,33.49
2018-08-13T13:42:53.084Z,32.55
2018-08-13T13:45:22.070Z,32.27
2018-08-13T13:47:51.012Z,32.62
2018-08-13T13:52:57.241Z,31.81
2018-08-13T13:55:26.218Z,33.04
2018-08-13T13:57:55.136Z,32.31
2018-08-13T14:00:24.119Z,31.27
2018-08-13T14:02:53.291Z,31.66
2018-08-13T14:05:22.176Z,30.83
2018-08-13T14:07:51.028Z,32.72
2018-08-13T14:10:21.320Z,32.98
2018-08-13T14:12:50.289Z,31.58
2018-08-13T14:15:20.711Z,31.79
2018-08-13T14:17:50.067Z,33.02
2018-08-13T14:20:20.913Z,33.69
2018-08-13T14:22:49.932Z,32.61
2018-08-13T14:25:19.357Z,31.55
2018-08-13T14:27:48.459Z,29.74
2018-08-13T14:30:19.981Z,33.07
2018-08-13T14:32:49.429Z,35.01
2018-08-13T14:35:19.833Z,33.33
2018-08-13T14:37:49.099Z,32.56
2018-08-13T14:40:18.068Z,33.52
2018-08-13T14:42:47.031Z,33.68
2018-08-13T14:45:18.370Z,33.73
2018-08-13T14:47:48.943Z,34.43
2018-08-13T14:50:18.077Z,33.97
2018-08-13T14:52:48.083Z,34.59
2018-08-13T14:55:18.508Z,33.84
2018-08-13T14:57:47.808Z,32.94
2018-08-13T15:00:21.724Z,33.95
2018-08-13T15:02:51.060Z,33.63
2018-08-13T15:05:19.984Z,33.12
2018-08-13T15:07:48.957Z,35.72
2018-08-13T15:10:19.802Z,35.50
2018-08-13T15:12:48.941Z,33.38
2018-08-13T15:15:17.928Z,33.80
2018-08-13T15:17:47.120Z,35.21
2018-08-13T15:20:26.329Z,34.84
2018-08-13T15:22:55.372Z,33.60
2018-08-13T15:25:28.468Z,33.80
2018-08-13T15:27:57.337Z,34.56
2018-08-13T15:30:26.988Z,33.17
2018-08-13T15:32:56.094Z,34.40
2018-08-13T15:35:25.145Z,35.99
2018-08-13T15:37:54.071Z,35.85
2018-08-13T15:40:23.042Z,35.08
2018-08-13T15:42:52.121Z,34.92
2018-08-13T15:45:23.055Z,35.30
2018-08-13T15:47:52.406Z,33.83
2018-08-13T15:50:23.624Z,34.87
2018-08-13T15:52:53.089Z,35.54
2018-08-13T15:55:22.016Z,33.91
2018-08-13T15:57:52.096Z,34.91
2018-08-13T16:00:26.162Z,34.49
2018-08-13T16:02:55.299Z,34.37
2018-08-13T16:05:24.649Z,35.09
2018-08-13T16:07:54.038Z,36.40
2018-08-13T16:12:57.866Z,36.92
2018-08-13T16:15:27.309Z,36.92
2018-08-13T16:17:56.702Z,37.73
2018-08-13T16:20:25.587Z,38.58
2018-08-13T16:22:54.695Z,38.53
2018-08-13T16:25:24.088Z,38.27
2018-08-13T16:27:53.228Z,38.05
2018-08-13T16:30:25.678Z,38.90
2018-08-13T16:32:54.752Z,38.52
2018-08-13T16:35:24.411Z,39.45
2018-08-13T16:37:55.922Z,39.12
2018-08-13T16:40:26.064Z,38.80
2018-08-13T16:42:55.689Z,39.45
2018-08-13T16:45:25.555Z,40.21
2018-08-13T16:47:54.474Z,39.97
2018-08-13T16:50:26.214Z,40.18
2018-08-13T16:52:55.563Z,40.85
2018-08-13T16:55:24.837Z,40.27
2018-08-13T16:57:53.868Z,40.95
2018-08-13T17:00:25.163Z,41.66
2018-08-13T17:02:54.905Z,40.99
2018-08-13T17:05:25.440Z,40.47
2018-08-13T17:07:55.279Z,40.74
2018-08-13T17:10:26.313Z,40.19
2018-08-13T17:12:55.912Z,41.21
2018-08-13T17:15:25.936Z,41.85
2018-08-13T17:17:56.535Z,41.80
2018-08-13T17:20:31.108Z,42.30
2018-08-13T17:25:34.571Z,43.40
2018-08-13T17:28:04.713Z,42.99
2018-08-13T17:30:33.868Z,41.55
2018-08-13T17:33:02.777Z,42.18
2018-08-13T17:35:33.762Z,43.54
2018-08-13T17:38:03.520Z,43.92
2018-08-13T17:40:32.629Z,42.92
2018-08-13T17:43:01.626Z,42.58
2018-08-13T17:45:32.566Z,42.15
2018-08-13T17:48:01.758Z,43.12
2018-08-13T17:50:32.321Z,44.07
2018-08-13T17:53:02.974Z,43.46
2018-08-13T17:55:34.937Z,43.96
2018-08-13T17:58:05.405Z,45.01
2018-08-13T18:00:35.348Z,45.30
2018-08-13T18:03:05.196Z,45.66
2018-08-13T18:05:35.250Z,46.11
2018-08-13T18:08:06.431Z,45.93
2018-08-13T18:10:36.507Z,47.25
2018-08-13T18:13:08.221Z,45.14
2018-08-13T18:15:38.774Z,45.94
2018-08-13T18:18:08.765Z,46.82
2018-08-13T18:20:39.002Z,48.00
2018-08-13T18:23:09.909Z,48.10
2018-08-13T18:25:40.078Z,47.99
2018-08-13T18:28:10.041Z,46.95
2018-08-13T18:30:41.029Z,47.58
2018-08-13T18:33:11.803Z,47.65
2018-08-13T18:35:41.887Z,48.21
2018-08-13T18:38:11.883Z,49.13
2018-08-13T18:40:41.948Z,49.23
2018-08-13T18:43:11.965Z,49.80
2018-08-13T18:45:41.976Z,49.67
2018-08-13T18:48:12.508Z,49.16
2018-08-13T18:53:25.115Z,50.03
2018-08-13T18:55:55.382Z,49.10
2018-08-13T18:58:26.274Z,49.73
2018-08-13T19:00:56.651Z,50.61
2018-08-13T19:03:27.465Z,50.07
2018-08-13T19:05:57.718Z,51.70
2018-08-13T19:08:27.964Z,50.91
2018-08-13T19:10:58.349Z,50.58
2018-08-13T19:13:28.476Z,52.15
2018-08-13T19:15:59.340Z,52.11
2018-08-13T19:18:30.821Z,51.11
2018-08-13T19:21:03.544Z,52.30
2018-08-13T19:23:35.724Z,52.49
2018-08-13T19:26:08.584Z,53.12
2018-08-13T19:28:39.449Z,52.59
2018-08-13T19:31:11.366Z,52.88
2018-08-13T19:33:44.104Z,53.81
2018-08-13T19:36:15.919Z,53.82
2018-08-13T19:38:51.706Z,54.22
2018-08-13T19:41:23.660Z,53.83
2018-08-13T19:43:58.417Z,54.66
2018-08-13T19:46:31.157Z,54.33
2018-08-13T19:49:04.471Z,53.17
2018-08-13T19:51:36.782Z,54.51
2018-08-13T19:54:08.287Z,54.21
2018-08-13T19:56:39.811Z,55.08
2018-08-13T19:59:10.668Z,54.14
2018-08-13T20:01:41.727Z,54.18
2018-08-13T20:04:14.581Z,54.75
2018-08-13T20:06:47.063Z,54.21
2018-08-13T20:09:18.487Z,54.47
2018-08-13T20:11:53.775Z,54.78
2018-08-13T20:14:25.984Z,54.66
2018-08-13T20:16:57.241Z,55.11
2018-08-13T20:19:28.331Z,55.43
2018-08-13T20:21:58.358Z,55.60
2018-08-13T20:24:30.534Z,54.48
2018-08-13T20:27:01.214Z,54.67
2018-08-13T20:29:32.312Z,53.97
2018-08-13T20:32:03.354Z,54.06
2018-08-13T20:34:33.632Z,54.15
2018-08-13T20:37:03.917Z,54.44
2018-08-13T20:39:34.835Z,55.57
2018-08-13T20:42:05.180Z,55.50
2018-08-13T20:44:35.594Z,55.14
2018-08-13T20:47:06.456Z,54.33
2018-08-13T20:49:36.716Z,53.28
2018-08-13T20:52:06.817Z,53.72
2018-08-13T20:54:38.688Z,54.26
2018-08-13T20:57:08.698Z,53.88
2018-08-13T20:59:38.769Z,53.82
2018-08-13T21:02:08.894Z,54.04
2018-08-13T21:04:40.170Z,55.30
2018-08-13T21:07:11.444Z,55.09
2018-08-13T21:09:41.255Z,54.84
2018-08-13T21:12:11.560Z,54.88
2018-08-13T21:14:42.593Z,55.64
2018-08-13T21:17:12.370Z,55.07
2018-08-13T21:19:42.339Z,55.22
2018-08-13T21:22:14.754Z,55.87
2018-08-13T21:24:45.937Z,55.91
2018-08-13T21:27:18.312Z,55.45
2018-08-13T21:29:53.415Z,55.27
2018-08-13T21:32:32.614Z,55.49
2018-08-13T21:35:06.294Z,56.01
2018-08-13T21:37:37.575Z,56.97
2018-08-13T21:40:16.021Z,56.96
2018-08-13T21:42:47.619Z,56.99
2018-08-13T21:45:19.283Z,56.98
2018-08-13T21:47:50.599Z,57.03
2018-08-13T21:50:23.801Z,57.36
2018-08-13T21:52:55.211Z,57.31
2018-08-13T21:55:26.741Z,57.01
2018-08-13T21:57:59.044Z,57.63
2018-08-13T22:00:32.985Z,58.04
2018-08-13T22:03:05.113Z,58.13
2018-08-13T22:05:35.951Z,58.21
2018-08-13T22:08:07.418Z,58.18
2018-08-13T22:10:45.115Z,57.25
2018-08-13T22:13:16.102Z,58.19
2018-08-13T22:15:47.836Z,57.78
2018-08-13T22:18:19.095Z,58.17
2018-08-13T22:20:52.349Z,57.77
2018-08-13T22:23:24.118Z,58.27
2018-08-13T22:25:56.860Z,58.40
2018-08-13T22:28:31.086Z,57.70
2018-08-13T22:31:01.919Z,57.62
2018-08-13T22:33:32.869Z,58.41
2018-08-13T22:36:04.738Z,58.84
2018-08-13T22:38:35.947Z,59.05
2018-08-13T22:41:07.921Z,58.91
2018-08-13T22:43:38.941Z,59.00
2018-08-13T22:46:12.396Z,59.59
2018-08-13T22:48:43.998Z,60.84
2018-08-13T22:51:19.836Z,60.71
2018-08-13T22:53:51.615Z,60.87
2018-08-13T22:56:23.925Z,60.01
2018-08-13T22:58:55.245Z,61.00
2018-08-13T23:01:29.020Z,61.12
2018-08-13T23:04:04.974Z,60.35
2018-08-13T23:06:38.356Z,60.61
2018-08-13T23:09:16.945Z,59.82
2018-08-13T23:11:52.472Z,60.67
2018-08-13T23:14:25.927Z,60.12
2018-08-13T23:17:02.820Z,60.49
2018-08-13T23:19:35.033Z,59.28
2018-08-13T23:22:08.132Z,59.65
2018-08-13T23:24:38.908Z,60.57
2018-08-13T23:27:10.816Z,60.61
2018-08-13T23:29:42.940Z,60.18
2018-08-13T23:32:15.868Z,60.39
2018-08-13T23:34:49.780Z,60.19
2018-08-13T23:37:23.186Z,59.88
2018-08-13T23:39:54.092Z,59.82
2018-08-13T23:42:31.180Z,59.29
2018-08-13T23:45:03.227Z,57.95
2018-08-13T23:47:34.532Z,57.38
2018-08-13T23:50:08.766Z,57.23
2018-08-13T23:52:43.500Z,57.47
2018-08-13T23:55:21.551Z,56.16
2018-08-13T23:57:53.285Z,55.66
